Elizabeth, West Virginia
Current Conditions -  °F | °C
As of 4:53 AM on Saturday 20 Dec 2014 (Local Time) from KPKB Reporting Station
Overcast Overcast  
Wind Chill: 25°   Ceiling: 1900
Heat Index: 30°   Visibility: 10mi
Dew Point: 22°   Wind: 5mph
Humidity: 72%   Direction: 10°N
Pressure: 30.27"   Gusts: NA
Location:  39.06°N, 81.4°W
Report Text: KPKB 200953Z AUTO 01004KT 10SM OVC019 M01/M06 A3027 RMK AO2 SLP259 T10111056
Loading
Personal Weather Stations






























Interactive Weather Map New forecast layout! Learn more

10-Day Weather Forecast

Advertisements
Track Severe Weather on mobile